Le Boreal — FLSY — position and weather

sailwx.info

Track history (hours):
 
Tides and Currents Weather Stations Pressure Air Temp Water Temp Dewpoint Dewpoint Depression Visibility Wind Speed Wind Dir Waves Ship Positions

Le Boreal

Last reported at 2014-Aug-31 22:14 UTC. Time now 2014-Sep-03 07:27 UTC.
Position N 64°49' W 053°22'.

Length 142 m; draft 5 m.

Type: Passenger vessel. MMSI: 578000500.

Date/timePositionNaut miles runAvg speedWind from/ knotsBaromVisibWave heightAir tempDewpointWater temp
2014-Aug-31 22:14N 64°49' W 053°22'913.3
2014-Aug-31 21:32N 64°41' W 053°13'1212.3
2014-Aug-31 20:33N 64°30' W 053°01'1212.0
2014-Aug-31 19:33N 64°19' W 052°49'10 9.8
2014-Aug-31 18:33N 64°10' W 052°39'10 9.6
2014-Aug-31 17:33N 64°05' W 052°21'1413.5
2014-Aug-31 16:33N 64°08' W 051°51'4 3.6
2014-Aug-31 15:28N 64°10' W 051°43'0 0.0
2014-Aug-31 14:31N 64°10' W 051°43'0 0.0
2014-Aug-31 13:33N 64°10' W 051°43'0 0.0
2014-Aug-31 12:32N 64°10' W 051°43'0 0.0
2014-Aug-31 11:32N 64°10' W 051°43'0 0.0
2014-Aug-31 10:32N 64°10' W 051°43'0 0.2
2014-Aug-31 09:33N 64°10' W 051°43'6 6.3
2014-Aug-31 08:33N 64°07' W 051°56'8 7.7
2014-Aug-31 07:33N 64°03' W 052°11'7 7.2
2014-Aug-31 06:33N 63°57' W 052°20'8 7.8
2014-Aug-31 05:33N 63°49' W 052°18'8 7.5
2014-Aug-31 04:33N 63°42' W 052°15'  
2014-Aug-22 19:25N 64°04' W 022°10'5 6.2
2014-Aug-22 18:33N 64°04' W 021°58'0 0.0
2014-Aug-22 17:32N 64°04' W 021°58'0 0.0
2014-Aug-22 16:32N 64°04' W 021°58'0 0.0
2014-Aug-22 15:26N 64°04' W 021°58'0 0.0
2014-Aug-22 14:32N 64°04' W 021°58'0 0.0
2014-Aug-22 13:32N 64°04' W 021°58'0 0.0
2014-Aug-22 12:32N 64°04' W 021°58'0 0.0
2014-Aug-22 11:32N 64°04' W 021°58'0 0.0
2014-Aug-22 10:26N 64°04' W 021°58'0 0.0
2014-Aug-22 09:26N 64°04' W 021°58'0 0.0
2014-Aug-22 08:29N 64°04' W 021°58'0 0.0
2014-Aug-22 07:32N 64°04' W 021°58'0 0.0
2014-Aug-22 06:29N 64°04' W 021°58'0 0.0
2014-Aug-22 05:32N 64°04' W 021°58'0 0.0
2014-Aug-22 04:20N 64°04' W 021°58'0 0.0
2014-Aug-22 03:29N 64°04' W 021°58'0 0.0
2014-Aug-22 02:26N 64°04' W 021°58'0 0.0
2014-Aug-22 01:32N 64°04' W 021°58'0 0.0
2014-Aug-22 00:32N 64°04' W 021°58'0 0.0
2014-Aug-21 23:26N 64°04' W 021°58'0 0.0
2014-Aug-21 22:32N 64°04' W 021°58'  
Track history (hours):
 
Tides and Currents Weather Stations Pressure Air Temp Water Temp Dewpoint Dewpoint Depression Visibility Wind Speed Wind Dir Waves Ship Positions

Le Boreal

Last reported at 2014-Aug-31 22:14 UTC. Time now 2014-Sep-03 07:27 UTC.
Position N 64°49' W 053°22'.

Length 142 m; draft 5 m.

Type: Passenger vessel. MMSI: 578000500.

Date/timePositionNaut miles runAvg speedWind from/ knotsBaromVisibWave heightAir tempDewpointWater temp
2014-Aug-31 22:14N 64°49' W 053°22'913.3
2014-Aug-31 21:32N 64°41' W 053°13'1212.3
2014-Aug-31 20:33N 64°30' W 053°01'1212.0
2014-Aug-31 19:33N 64°19' W 052°49'10 9.8
2014-Aug-31 18:33N 64°10' W 052°39'10 9.6
2014-Aug-31 17:33N 64°05' W 052°21'1413.5
2014-Aug-31 16:33N 64°08' W 051°51'4 3.6
2014-Aug-31 15:28N 64°10' W 051°43'0 0.0
2014-Aug-31 14:31N 64°10' W 051°43'0 0.0
2014-Aug-31 13:33N 64°10' W 051°43'0 0.0
2014-Aug-31 12:32N 64°10' W 051°43'0 0.0
2014-Aug-31 11:32N 64°10' W 051°43'0 0.0
2014-Aug-31 10:32N 64°10' W 051°43'0 0.2
2014-Aug-31 09:33N 64°10' W 051°43'6 6.3
2014-Aug-31 08:33N 64°07' W 051°56'8 7.7
2014-Aug-31 07:33N 64°03' W 052°11'7 7.2
2014-Aug-31 06:33N 63°57' W 052°20'8 7.8
2014-Aug-31 05:33N 63°49' W 052°18'8 7.5
2014-Aug-31 04:33N 63°42' W 052°15'  
2014-Aug-22 19:25N 64°04' W 022°10'5 6.2
2014-Aug-22 18:33N 64°04' W 021°58'0 0.0
2014-Aug-22 17:32N 64°04' W 021°58'0 0.0
2014-Aug-22 16:32N 64°04' W 021°58'0 0.0
2014-Aug-22 15:26N 64°04' W 021°58'0 0.0
2014-Aug-22 14:32N 64°04' W 021°58'0 0.0
2014-Aug-22 13:32N 64°04' W 021°58'0 0.0
2014-Aug-22 12:32N 64°04' W 021°58'0 0.0
2014-Aug-22 11:32N 64°04' W 021°58'0 0.0
2014-Aug-22 10:26N 64°04' W 021°58'0 0.0
2014-Aug-22 09:26N 64°04' W 021°58'0 0.0
2014-Aug-22 08:29N 64°04' W 021°58'0 0.0
2014-Aug-22 07:32N 64°04' W 021°58'0 0.0
2014-Aug-22 06:29N 64°04' W 021°58'0 0.0
2014-Aug-22 05:32N 64°04' W 021°58'0 0.0
2014-Aug-22 04:20N 64°04' W 021°58'0 0.0
2014-Aug-22 03:29N 64°04' W 021°58'0 0.0
2014-Aug-22 02:26N 64°04' W 021°58'0 0.0
2014-Aug-22 01:32N 64°04' W 021°58'0 0.0
2014-Aug-22 00:32N 64°04' W 021°58'0 0.0
2014-Aug-21 23:26N 64°04' W 021°58'0 0.0
2014-Aug-21 22:32N 64°04' W 021°58'  

Dump ship's entire track history